Time;durP1;ratioP1;P1;durP2;ratioP2;P2;SDS_P1;SDS_P2;PMS_P1;PMS_P2;Temp;Humidity;BMP_temperature;BMP_pressure;BME280_temperature;BME280_humidity;BME280_pressure;Samples;Min_cycle;Max_cycle;Signal;HPM_P1;HPM_P2
2021/06/09 00:02:23;;;;;;;6.70;4.75;;;16.90;99.90;;;;;;4388187;32;20077;-65
2021/06/09 00:04:49;;;;;;;9.70;4.62;;;16.90;99.90;;;;;;4415397;32;20069;-65
2021/06/09 00:07:16;;;;;;;5.68;4.20;;;17.00;99.90;;;;;;4415350;32;20484;-65
2021/06/09 00:09:42;;;;;;;8.60;4.62;;;17.10;99.90;;;;;;4402771;32;20081;-65
2021/06/09 00:12:08;;;;;;;6.03;3.90;;;17.20;99.90;;;;;;4389775;32;20185;-66
2021/06/09 00:14:35;;;;;;;5.68;4.35;;;17.20;99.90;;;;;;4398694;32;20072;-65
2021/06/09 00:17:01;;;;;;;5.80;4.12;;;17.30;99.90;;;;;;4392560;32;20165;-66
2021/06/09 00:19:27;;;;;;;4.93;3.72;;;17.30;99.90;;;;;;4414170;32;20062;-65
2021/06/09 00:21:55;;;;;;;6.78;4.25;;;17.40;99.90;;;;;;4402590;32;20185;-65
2021/06/09 00:24:22;;;;;;;4.68;3.35;;;17.40;99.90;;;;;;4389984;32;20073;-66
2021/06/09 00:26:49;;;;;;;5.57;3.45;;;17.30;99.90;;;;;;4415704;32;20093;-66
2021/06/09 00:29:16;;;;;;;5.53;3.42;;;17.30;99.90;;;;;;4403603;32;20065;-66
2021/06/09 00:31:42;;;;;;;8.60;3.70;;;17.40;99.90;;;;;;4395933;32;20527;-65
2021/06/09 00:34:08;;;;;;;8.15;3.60;;;17.20;99.90;;;;;;4397081;32;20089;-64
2021/06/09 00:36:34;;;;;;;5.43;3.47;;;17.40;99.90;;;;;;4389692;32;20070;-65
2021/06/09 00:39:00;;;;;;;7.40;3.58;;;17.40;99.90;;;;;;4403605;32;20475;-65
2021/06/09 00:41:26;;;;;;;6.50;3.40;;;17.40;99.90;;;;;;4401074;32;20065;-65
2021/06/09 00:43:53;;;;;;;6.12;3.35;;;17.50;99.90;;;;;;4401921;32;20090;-65
2021/06/09 00:46:19;;;;;;;5.35;3.08;;;17.60;99.90;;;;;;4389411;32;20080;-65
2021/06/09 00:48:45;;;;;;;4.60;3.20;;;17.60;99.90;;;;;;4376975;32;20575;-66
2021/06/09 00:51:18;;;;;;;5.60;3.17;;;17.70;99.90;;;;;;4389663;32;20073;-64
2021/06/09 00:53:51;;;;;;;4.22;3.25;;;17.70;99.90;;;;;;4384015;32;20461;-66
2021/06/09 00:56:18;;;;;;;4.82;3.40;;;17.70;99.90;;;;;;4395928;32;20070;-65
2021/06/09 00:58:46;;;;;;;5.82;3.58;;;17.40;99.90;;;;;;4376423;32;20097;-66
2021/06/09 01:01:13;;;;;;;4.57;3.20;;;17.30;99.90;;;;;;4389931;32;20164;-65
2021/06/09 01:03:39;;;;;;;4.45;3.08;;;17.30;99.90;;;;;;4397114;32;20081;-65
2021/06/09 01:06:06;;;;;;;4.95;3.10;;;17.50;99.90;;;;;;4381872;32;20468;-65
2021/06/09 01:08:36;;;;;;;5.10;3.40;;;17.60;99.90;;;;;;4370085;32;20097;-65
2021/06/09 01:11:03;;;;;;;4.45;2.90;;;17.60;99.90;;;;;;4388861;32;20073;-65
2021/06/09 01:13:31;;;;;;;4.47;3.17;;;17.60;99.90;;;;;;4364235;32;20072;-65
2021/06/09 01:15:58;;;;;;;9.35;3.40;;;17.60;99.90;;;;;;4383943;32;20074;-64
2021/06/09 01:18:24;;;;;;;5.90;3.10;;;17.40;99.90;;;;;;4379368;32;20083;-66
2021/06/09 01:20:50;;;;;;;5.20;3.30;;;17.40;99.90;;;;;;4380524;32;20164;-65
2021/06/09 01:23:16;;;;;;;4.03;3.05;;;17.40;99.90;;;;;;4388943;32;20089;-66
2021/06/09 01:25:43;;;;;;;7.37;3.42;;;17.50;99.90;;;;;;4382240;32;20081;-65
2021/06/09 01:28:09;;;;;;;6.28;3.28;;;17.50;99.90;;;;;;4370269;32;20425;-65
2021/06/09 01:30:36;;;;;;;5.00;3.30;;;17.40;99.90;;;;;;4381974;32;20058;-66
2021/06/09 01:33:03;;;;;;;5.90;3.08;;;17.50;99.90;;;;;;4379045;32;20448;-65
2021/06/09 01:35:29;;;;;;;4.53;3.03;;;17.60;99.90;;;;;;4387315;32;20078;-65
2021/06/09 01:37:56;;;;;;;5.82;3.03;;;17.70;99.90;;;;;;4384750;32;20074;-65
2021/06/09 01:40:23;;;;;;;5.00;3.42;;;17.60;99.90;;;;;;4361378;32;20076;-65
2021/06/09 01:42:50;;;;;;;4.90;3.20;;;17.50;99.90;;;;;;4378490;32;20190;-65
2021/06/09 01:45:25;;;;;;;5.00;3.10;;;17.60;99.90;;;;;;4388553;32;20142;-65
2021/06/09 01:47:51;;;;;;;5.28;3.33;;;17.60;99.90;;;;;;4370361;32;20078;-65
2021/06/09 01:50:18;;;;;;;5.80;3.87;;;17.50;99.90;;;;;;4369659;32;20098;-65
2021/06/09 01:52:45;;;;;;;5.43;3.35;;;17.40;99.90;;;;;;4388340;32;20064;-65
2021/06/09 01:55:12;;;;;;;6.10;3.40;;;17.40;99.90;;;;;;4353831;32;20078;-65
2021/06/09 01:57:38;;;;;;;7.18;3.70;;;17.50;99.90;;;;;;4385732;32;20067;-66
2021/06/09 02:00:28;;;;;;;5.97;3.40;;;17.50;99.90;;;;;;4383981;32;20089;-65
2021/06/09 02:02:59;;;;;;;6.40;3.70;;;17.50;99.90;;;;;;4378344;32;20576;-65
2021/06/09 02:05:30;;;;;;;7.60;3.92;;;17.40;99.90;;;;;;4387328;32;20097;-65
2021/06/09 02:07:58;;;;;;;4.72;3.80;;;17.50;99.90;;;;;;4382816;32;20607;-65
2021/06/09 02:10:24;;;;;;;6.25;3.85;;;17.60;99.90;;;;;;4368890;32;20172;-65
2021/06/09 02:12:54;;;;;;;4.82;3.53;;;17.70;99.90;;;;;;4370648;32;20081;-65
2021/06/09 02:15:21;;;;;;;6.55;3.05;;;17.60;99.90;;;;;;4375373;32;20069;-65
2021/06/09 02:17:57;;;;;;;8.88;3.67;;;17.70;99.90;;;;;;4356781;32;20475;-65
2021/06/09 02:23:00;;;;;;;6.07;3.70;;;17.80;99.90;;;;;;3834683;37;20251;-65
2021/06/09 02:25:27;;;;;;;5.68;3.50;;;17.90;99.90;;;;;;4383304;32;20073;-65
2021/06/09 02:27:54;;;;;;;4.55;3.25;;;18.10;99.90;;;;;;4392076;32;20519;-65
2021/06/09 02:30:20;;;;;;;5.93;3.47;;;18.30;99.90;;;;;;4383036;32;20091;-66
2021/06/09 02:32:47;;;;;;;5.07;3.25;;;18.40;99.90;;;;;;4378207;32;20088;-65
2021/06/09 02:35:18;;;;;;;5.07;3.60;;;18.50;99.90;;;;;;4402780;32;20062;-65
2021/06/09 02:37:51;;;;;;;4.93;3.28;;;18.70;99.90;;;;;;4393158;32;20062;-65
2021/06/09 02:40:18;;;;;;;7.15;3.15;;;18.90;99.90;;;;;;4398095;32;20081;-68
2021/06/09 02:42:45;;;;;;;5.95;3.15;;;19.10;99.90;;;;;;4380492;32;20089;-66
2021/06/09 02:45:14;;;;;;;5.22;3.05;;;19.10;99.90;;;;;;4390615;32;20492;-65
2021/06/09 02:47:47;;;;;;;6.28;2.67;;;19.10;99.90;;;;;;4367902;32;20062;-65
2021/06/09 02:50:14;;;;;;;5.28;3.03;;;19.30;99.90;;;;;;4357922;32;20160;-65
2021/06/09 02:53:13;;;;;;;5.00;3.47;;;19.50;99.90;;;;;;4387258;32;20073;-66
2021/06/09 02:55:52;;;;;;;5.32;3.03;;;19.70;99.90;;;;;;4362816;32;20150;-65
2021/06/09 02:58:32;;;;;;;7.37;3.12;;;19.90;99.90;;;;;;4389649;32;20485;-65
2021/06/09 03:01:29;;;;;;;6.07;3.10;;;20.00;99.90;;;;;;4363756;32;20065;-66
2021/06/09 03:04:06;;;;;;;4.72;3.10;;;20.10;99.90;;;;;;4369875;32;20076;-65
2021/06/09 03:06:59;;;;;;;3.83;2.85;;;20.20;99.90;;;;;;4368089;32;20089;-66
2021/06/09 03:10:04;;;;;;;6.47;3.40;;;20.50;99.90;;;;;;4368947;32;20575;-66
2021/06/09 03:12:54;;;;;;;7.03;3.60;;;20.60;99.90;;;;;;4395961;32;20058;-66
2021/06/09 03:15:42;;;;;;;8.18;4.72;;;20.90;99.90;;;;;;4354796;32;20447;-64
2021/06/09 03:18:28;;;;;;;7.55;4.65;;;21.00;99.90;;;;;;4369656;32;20051;-66
2021/06/09 03:20:57;;;;;;;11.02;5.87;;;20.90;99.90;;;;;;4352968;32;20135;-66
2021/06/09 03:24:11;;;;;;;14.25;6.50;;;20.60;99.90;;;;;;4361633;32;20055;-66
2021/06/09 03:26:59;;;;;;;10.93;6.25;;;20.70;99.90;;;;;;4389993;32;20567;-65
2021/06/09 03:29:38;;;;;;;11.07;6.55;;;20.80;99.90;;;;;;4375946;32;20073;-65
2021/06/09 03:32:11;;;;;;;13.45;7.47;;;20.90;99.90;;;;;;4403626;32;20094;-65
2021/06/09 03:34:52;;;;;;;20.40;8.23;;;20.80;99.90;;;;;;4356689;32;20059;-66
2021/06/09 03:37:19;;;;;;;14.02;8.13;;;20.90;99.90;;;;;;4349971;32;20057;-64
2021/06/09 03:39:46;;;;;;;19.80;9.93;;;20.80;99.90;;;;;;4357790;32;20472;-66
2021/06/09 03:42:15;;;;;;;18.65;10.15;;;20.90;99.90;;;;;;4357897;32;20081;-65
2021/06/09 03:44:45;;;;;;;15.25;9.27;;;21.00;99.90;;;;;;4350904;32;20073;-65
2021/06/09 03:47:12;;;;;;;13.75;9.25;;;21.10;99.90;;;;;;4330285;32;20065;-65
2021/06/09 03:49:38;;;;;;;18.98;11.00;;;21.40;99.90;;;;;;4374412;32;20503;-65
2021/06/09 03:52:05;;;;;;;17.45;9.75;;;21.20;99.90;;;;;;4357279;32;20086;-65
2021/06/09 03:54:33;;;;;;;17.40;10.80;;;21.40;99.90;;;;;;4356409;32;20098;-66
2021/06/09 03:56:59;;;;;;;19.50;11.55;;;21.50;99.90;;;;;;4364737;32;20084;-66
2021/06/09 03:59:26;;;;;;;29.63;11.35;;;21.50;99.90;;;;;;4353731;32;20077;-66
2021/06/09 04:01:52;;;;;;;22.27;11.10;;;21.80;99.90;;;;;;4372934;32;20079;-65
2021/06/09 04:04:20;;;;;;;20.42;10.95;;;21.90;99.90;;;;;;4348958;32;20249;-66
2021/06/09 04:06:47;;;;;;;19.67;11.63;;;22.00;99.90;;;;;;4367247;32;20512;-65
2021/06/09 04:09:19;;;;;;;18.50;10.93;;;22.20;99.90;;;;;;4351922;32;20082;-65
2021/06/09 04:11:45;;;;;;;17.52;8.90;;;22.20;99.90;;;;;;4345532;32;20080;-65
2021/06/09 04:14:12;;;;;;;15.07;9.02;;;22.30;99.90;;;;;;4333251;32;20125;-65
2021/06/09 04:16:38;;;;;;;16.62;8.70;;;22.50;99.90;;;;;;4355522;32;20073;-66
2021/06/09 04:19:07;;;;;;;14.87;8.80;;;22.90;99.90;;;;;;4316483;32;20105;-66
2021/06/09 04:21:33;;;;;;;15.63;9.30;;;23.10;99.50;;;;;;4344018;33;20639;-65
2021/06/09 04:23:59;;;;;;;16.02;9.93;;;23.20;99.00;;;;;;4334524;33;20525;-65
2021/06/09 04:26:25;;;;;;;20.73;10.57;;;23.10;99.10;;;;;;4355850;32;20082;-65
2021/06/09 04:28:53;;;;;;;19.90;9.90;;;23.50;97.40;;;;;;4347822;32;20558;-66
2021/06/09 04:31:19;;;;;;;13.90;9.38;;;25.20;89.10;;;;;;4361118;32;20485;-65
2021/06/09 04:33:46;;;;;;;12.93;7.30;;;25.20;83.70;;;;;;4331734;33;20162;-66
2021/06/09 04:36:15;;;;;;;12.05;7.60;;;24.20;91.10;;;;;;4338230;33;20093;-65
2021/06/09 04:38:42;;;;;;;13.77;7.93;;;23.90;92.30;;;;;;4351961;32;20086;-67
2021/06/09 04:41:09;;;;;;;13.50;7.68;;;24.40;90.00;;;;;;4335865;32;20580;-66
2021/06/09 04:43:35;;;;;;;13.48;7.45;;;24.30;89.30;;;;;;4367950;32;20124;-66
2021/06/09 04:46:02;;;;;;;12.82;7.68;;;25.10;81.60;;;;;;4343184;32;20090;-66
2021/06/09 04:48:28;;;;;;;15.82;8.30;;;24.60;82.30;;;;;;4344094;32;20073;-66
2021/06/09 04:50:54;;;;;;;16.45;8.43;;;23.90;86.80;;;;;;4338023;32;20075;-66
2021/06/09 04:53:21;;;;;;;14.52;8.35;;;24.20;85.90;;;;;;4349285;32;20139;-66
2021/06/09 04:55:54;;;;;;;18.85;10.20;;;25.90;69.70;;;;;;4355367;32;20094;-67
2021/06/09 04:58:22;;;;;;;15.82;8.55;;;24.70;76.80;;;;;;4346833;32;20493;-66
2021/06/09 05:00:49;;;;;;;19.75;10.27;;;25.40;78.90;;;;;;4355341;32;20082;-66
2021/06/09 05:03:15;;;;;;;19.37;10.20;;;25.20;71.30;;;;;;4358387;32;20151;-66
2021/06/09 05:05:42;;;;;;;14.18;8.07;;;24.50;78.60;;;;;;4358244;32;20168;-66
2021/06/09 05:08:08;;;;;;;18.10;9.25;;;25.80;72.70;;;;;;4356903;32;20181;-66
2021/06/09 05:10:35;;;;;;;16.80;8.85;;;27.40;60.20;;;;;;4345554;33;20083;-66
2021/06/09 05:13:05;;;;;;;13.70;8.90;;;27.90;55.70;;;;;;4360148;32;20147;-65
2021/06/09 05:15:35;;;;;;;17.65;10.15;;;27.80;53.90;;;;;;4345947;33;20134;-65
2021/06/09 05:18:01;;;;;;;23.35;11.50;;;27.90;54.30;;;;;;4365427;32;20074;-65
2021/06/09 05:20:33;;;;;;;17.55;10.80;;;28.10;50.00;;;;;;4350027;32;20151;-66
2021/06/09 05:23:10;;;;;;;19.05;11.50;;;28.30;50.80;;;;;;4345584;32;20069;-65
2021/06/09 05:25:40;;;;;;;21.08;11.15;;;28.30;48.00;;;;;;4332383;32;20082;-65
2021/06/09 05:28:06;;;;;;;22.00;11.43;;;27.50;50.20;;;;;;4331396;32;20644;-66
2021/06/09 05:30:33;;;;;;;14.27;10.18;;;28.50;48.00;;;;;;4345556;32;20079;-68
2021/06/09 05:32:59;;;;;;;10.35;7.35;;;28.20;45.20;;;;;;4348362;32;20600;-67
2021/06/09 05:35:27;;;;;;;19.15;7.72;;;28.20;43.90;;;;;;4349939;32;20063;-68
2021/06/09 05:37:53;;;;;;;12.40;5.93;;;29.10;39.50;;;;;;4347778;32;20086;-70
2021/06/09 05:40:20;;;;;;;11.35;7.20;;;29.70;36.70;;;;;;4347331;32;20548;-69
2021/06/09 05:42:47;;;;;;;15.23;7.57;;;29.50;36.50;;;;;;4330613;32;20521;-70
2021/06/09 05:45:14;;;;;;;14.13;7.70;;;29.60;34.40;;;;;;4346978;32;20512;-70
2021/06/09 05:47:46;;;;;;;13.25;6.80;;;29.30;35.70;;;;;;4331956;32;20065;-70
2021/06/09 05:50:24;;;;;;;14.25;8.77;;;29.50;34.90;;;;;;4354873;32;20082;-69
2021/06/09 05:52:52;;;;;;;12.30;8.88;;;28.80;36.40;;;;;;4355720;32;20110;-71
2021/06/09 05:55:24;;;;;;;12.15;6.78;;;28.90;34.30;;;;;;4345216;32;20072;-71
2021/06/09 05:57:51;;;;;;;9.93;5.68;;;29.20;34.50;;;;;;4325729;33;20077;-72
2021/06/09 06:00:21;;;;;;;12.68;6.50;;;29.50;32.90;;;;;;4355718;32;20070;-69
2021/06/09 06:02:48;;;;;;;14.80;8.85;;;29.40;32.30;;;;;;4331813;32;20154;-66
2021/06/09 06:05:16;;;;;;;10.15;7.40;;;29.00;34.10;;;;;;4337244;32;20058;-67
2021/06/09 06:07:42;;;;;;;11.27;8.95;;;28.20;33.60;;;;;;4353041;32;20198;-65
2021/06/09 06:10:09;;;;;;;11.80;6.37;;;28.40;34.80;;;;;;4339966;33;20506;-69
2021/06/09 06:12:36;;;;;;;8.70;5.57;;;28.30;32.70;;;;;;4343209;32;20163;-70
2021/06/09 06:15:04;;;;;;;11.95;7.20;;;28.80;31.90;;;;;;4344656;32;20529;-66
2021/06/09 06:17:30;;;;;;;12.98;7.68;;;28.50;33.30;;;;;;4342010;32;20106;-71
2021/06/09 06:19:56;;;;;;;11.38;7.28;;;28.20;35.10;;;;;;4340055;33;20178;-67
2021/06/09 06:22:22;;;;;;;15.32;8.50;;;29.90;33.90;;;;;;4346091;32;20051;-71
2021/06/09 06:24:50;;;;;;;15.93;9.95;;;28.80;36.90;;;;;;4356602;32;20175;-67
2021/06/09 06:27:18;;;;;;;15.50;8.13;;;27.70;39.30;;;;;;4346064;32;20187;-70
2021/06/09 06:29:45;;;;;;;10.65;6.70;;;27.40;45.00;;;;;;4326190;32;20105;-71
2021/06/09 06:32:14;;;;;;;8.52;6.55;;;27.50;45.10;;;;;;4346727;32;20218;-70
2021/06/09 06:34:49;;;;;;;14.07;9.65;;;27.90;42.70;;;;;;4308672;32;20074;-70
2021/06/09 06:37:15;;;;;;;14.73;9.40;;;26.80;43.50;;;;;;4340836;32;20081;-71
2021/06/09 06:39:42;;;;;;;11.93;7.03;;;26.60;44.40;;;;;;4331530;32;20078;-69
2021/06/09 06:42:08;;;;;;;10.52;6.28;;;27.30;41.30;;;;;;4356137;32;20175;-67
2021/06/09 06:44:35;;;;;;;10.32;6.93;;;27.30;41.60;;;;;;4331102;32;20590;-67
2021/06/09 06:47:02;;;;;;;8.23;5.10;;;27.60;40.60;;;;;;4356812;32;20120;-69
2021/06/09 06:49:29;;;;;;;8.90;4.68;;;27.60;41.20;;;;;;4363151;32;20073;-70
2021/06/09 06:51:56;;;;;;;13.18;6.00;;;27.40;39.80;;;;;;4343455;32;20097;-69
2021/06/09 06:54:22;;;;;;;7.40;5.15;;;27.70;40.80;;;;;;4346952;32;20086;-68
2021/06/09 06:56:51;;;;;;;8.10;6.05;;;27.50;40.10;;;;;;4346668;32;20558;-70
2021/06/09 06:59:18;;;;;;;10.15;5.93;;;27.10;39.60;;;;;;4339057;32;20074;-70
2021/06/09 07:01:44;;;;;;;15.52;4.68;;;27.40;40.20;;;;;;4346638;32;20529;-72
2021/06/09 07:04:12;;;;;;;7.62;5.12;;;27.40;43.30;;;;;;4337481;32;20098;-72
2021/06/09 07:06:39;;;;;;;11.30;5.97;;;27.00;43.80;;;;;;4340946;32;20067;-70
2021/06/09 07:09:05;;;;;;;11.45;4.35;;;26.40;45.70;;;;;;4357595;32;20149;-70
2021/06/09 07:11:32;;;;;;;5.80;4.07;;;26.60;45.70;;;;;;4357358;32;20086;-70
2021/06/09 07:13:59;;;;;;;4.68;3.28;;;26.60;44.70;;;;;;4356075;32;20552;-70
2021/06/09 07:16:32;;;;;;;8.13;4.93;;;26.90;44.80;;;;;;4354163;32;20063;-72
2021/06/09 07:19:00;;;;;;;6.70;4.03;;;26.40;42.70;;;;;;4358853;32;20094;-69
2021/06/09 07:21:26;;;;;;;6.60;4.20;;;26.90;44.10;;;;;;4359284;32;20078;-70
2021/06/09 07:23:53;;;;;;;8.80;4.28;;;26.90;43.90;;;;;;4361046;32;20149;-71
2021/06/09 07:26:20;;;;;;;6.72;3.97;;;27.50;41.90;;;;;;4335059;32;20073;-71
2021/06/09 07:28:56;;;;;;;4.85;3.60;;;27.90;40.70;;;;;;4327108;32;20117;-70
2021/06/09 07:31:35;;;;;;;6.57;3.75;;;27.60;41.50;;;;;;4368651;32;20463;-68
2021/06/09 07:34:03;;;;;;;12.63;4.30;;;27.70;40.50;;;;;;4344802;32;20074;-68
2021/06/09 07:37:10;;;;;;;8.02;4.43;;;27.70;40.00;;;;;;4341375;32;20090;-66
2021/06/09 07:39:45;;;;;;;6.07;3.92;;;27.30;41.60;;;;;;4345220;32;20109;-67
2021/06/09 07:42:13;;;;;;;8.57;3.80;;;27.80;40.40;;;;;;4329727;32;20094;-68
2021/06/09 07:44:52;;;;;;;5.37;3.85;;;28.20;39.40;;;;;;4343249;32;20489;-71
2021/06/09 07:47:19;;;;;;;6.90;4.10;;;28.20;38.70;;;;;;4324511;33;20102;-73
2021/06/09 07:49:48;;;;;;;6.12;4.15;;;28.00;39.60;;;;;;4337300;33;20129;-72
2021/06/09 07:52:16;;;;;;;6.53;4.12;;;27.70;41.30;;;;;;4349241;32;20504;-72
2021/06/09 07:54:42;;;;;;;6.32;4.05;;;27.80;39.20;;;;;;4347101;32;20109;-71
2021/06/09 07:57:09;;;;;;;6.05;3.53;;;27.70;39.80;;;;;;4345739;32;20108;-71
2021/06/09 07:59:35;;;;;;;7.95;4.15;;;27.90;38.70;;;;;;4363524;32;20113;-70
2021/06/09 08:02:01;;;;;;;6.72;3.95;;;28.10;40.10;;;;;;4349850;32;21428;-68
2021/06/09 08:04:27;;;;;;;8.30;4.68;;;28.20;38.70;;;;;;4359868;32;20071;-64
2021/06/09 08:06:54;;;;;;;6.75;4.65;;;28.50;38.50;;;;;;4350960;32;20138;-74
2021/06/09 08:09:20;;;;;;;6.75;4.43;;;28.30;40.40;;;;;;4344706;33;20078;-72
2021/06/09 08:11:46;;;;;;;6.45;4.15;;;28.10;41.20;;;;;;4347372;32;20143;-72
2021/06/09 08:14:16;;;;;;;6.47;3.90;;;28.40;41.50;;;;;;4350351;32;20489;-70
2021/06/09 08:16:42;;;;;;;10.23;4.82;;;28.60;41.40;;;;;;4330635;32;20086;-70
2021/06/09 08:19:08;;;;;;;7.55;4.22;;;28.40;40.60;;;;;;4355966;32;20106;-74
2021/06/09 08:21:35;;;;;;;7.93;4.07;;;28.50;40.90;;;;;;4347649;32;20067;-73
2021/06/09 08:24:02;;;;;;;6.20;3.72;;;28.80;39.50;;;;;;4360191;32;20063;-70
2021/06/09 08:26:28;;;;;;;5.20;3.92;;;28.40;38.90;;;;;;4365207;32;20176;-71
2021/06/09 08:28:56;;;;;;;6.95;3.80;;;28.70;40.30;;;;;;4342996;32;20059;-68
2021/06/09 08:31:29;;;;;;;9.88;4.82;;;28.70;40.30;;;;;;4349996;32;20060;-72
2021/06/09 08:33:57;;;;;;;6.53;4.37;;;27.10;42.60;;;;;;4347370;32;20101;-72
2021/06/09 08:36:24;;;;;;;6.00;3.95;;;27.30;44.70;;;;;;4338601;32;20081;-70
2021/06/09 08:38:54;;;;;;;5.28;4.00;;;27.00;44.00;;;;;;4349625;32;20091;-69
2021/06/09 08:41:35;;;;;;;6.37;3.50;;;27.10;44.40;;;;;;4354406;32;20063;-70
2021/06/09 08:44:03;;;;;;;5.15;3.33;;;27.90;41.20;;;;;;4325056;32;20538;-69
2021/06/09 08:46:30;;;;;;;6.87;3.08;;;27.90;37.40;;;;;;4346651;32;20082;-68
2021/06/09 08:48:57;;;;;;;6.03;3.40;;;28.00;37.70;;;;;;4323248;32;20114;-72
2021/06/09 08:51:23;;;;;;;4.80;3.15;;;28.00;38.70;;;;;;4357093;32;20579;-67
2021/06/09 08:53:51;;;;;;;5.43;2.92;;;27.90;38.10;;;;;;4344611;32;20078;-68
2021/06/09 08:56:18;;;;;;;7.25;3.20;;;28.40;38.70;;;;;;4355158;32;20090;-64
2021/06/09 08:58:45;;;;;;;6.05;3.35;;;28.90;38.40;;;;;;4364963;32;20092;-67
2021/06/09 09:01:12;;;;;;;5.70;3.58;;;28.90;37.70;;;;;;4344088;32;20102;-64
2021/06/09 09:03:43;;;;;;;4.90;3.17;;;28.50;38.20;;;;;;4336482;32;20058;-65
2021/06/09 09:06:09;;;;;;;3.60;2.70;;;27.80;39.00;;;;;;4362315;32;20160;-64
2021/06/09 09:08:36;;;;;;;7.20;3.55;;;28.20;39.40;;;;;;4358878;32;20071;-63
2021/06/09 09:11:02;;;;;;;7.18;3.60;;;28.30;39.20;;;;;;4343887;32;20121;-65
2021/06/09 09:13:29;;;;;;;3.70;3.17;;;29.20;39.60;;;;;;4354280;32;20128;-70
2021/06/09 09:15:55;;;;;;;5.60;3.25;;;28.70;37.50;;;;;;4356953;32;20094;-67
2021/06/09 09:18:37;;;;;;;5.18;3.45;;;28.50;36.70;;;;;;4341102;32;20444;-66
2021/06/09 09:21:03;;;;;;;4.72;3.42;;;29.00;36.50;;;;;;4353946;32;20102;-65
2021/06/09 09:23:29;;;;;;;4.95;2.83;;;28.10;36.00;;;;;;4359231;32;20066;-68
2021/06/09 09:25:59;;;;;;;5.50;3.20;;;28.70;36.50;;;;;;4366738;32;20112;-70
2021/06/09 09:28:32;;;;;;;7.62;3.47;;;28.90;35.50;;;;;;4354277;32;20113;-70
2021/06/09 09:31:12;;;;;;;3.17;2.75;;;28.70;36.20;;;;;;4343927;32;20110;-68
2021/06/09 09:33:38;;;;;;;5.10;3.25;;;28.80;34.00;;;;;;4355928;32;20070;-69
2021/06/09 09:36:27;;;;;;;4.78;3.03;;;29.30;33.60;;;;;;4364779;32;20493;-69
2021/06/09 09:38:58;;;;;;;6.78;3.15;;;28.80;35.20;;;;;;4340327;32;20121;-68
2021/06/09 09:41:30;;;;;;;7.80;3.70;;;28.90;34.10;;;;;;4344987;32;20163;-67
2021/06/09 09:44:05;;;;;;;7.35;3.58;;;29.20;34.40;;;;;;4339314;32;20112;-67
2021/06/09 09:46:51;;;;;;;5.05;3.50;;;29.00;34.60;;;;;;4366165;32;20138;-66
2021/06/09 09:49:18;;;;;;;;;;;29.30;33.30;;;;;;4341411;32;20105;-68
2021/06/09 09:51:51;;;;;;;5.03;3.15;;;29.20;33.00;;;;;;4358953;32;19985;-69
2021/06/09 09:54:32;;;;;;;4.22;3.20;;;29.10;32.50;;;;;;4372514;32;20074;-71
2021/06/09 09:56:59;;;;;;;4.15;3.10;;;29.10;31.90;;;;;;4357108;32;20094;-67
2021/06/09 09:59:27;;;;;;;5.75;3.00;;;28.80;32.80;;;;;;4341654;32;20085;-70
2021/06/09 10:01:55;;;;;;;5.72;3.28;;;29.50;29.90;;;;;;4354539;32;20098;-72
2021/06/09 10:04:30;;;;;;;7.00;3.58;;;29.70;30.80;;;;;;4329683;32;20619;-70
2021/06/09 10:06:57;;;;;;;7.12;3.00;;;30.00;30.50;;;;;;4341975;32;20070;-71
2021/06/09 10:09:37;;;;;;;6.37;2.97;;;29.90;30.10;;;;;;4356941;32;20071;-71
2021/06/09 10:12:09;;;;;;;5.72;3.50;;;29.50;29.20;;;;;;4365611;32;20121;-69
2021/06/09 10:14:38;;;;;;;12.18;6.53;;;29.90;30.30;;;;;;4350800;32;20101;-71
2021/06/09 10:17:17;;;;;;;12.45;7.28;;;30.20;32.90;;;;;;4357894;32;20058;-73
2021/06/09 10:19:58;;;;;;;7.95;6.53;;;29.10;34.10;;;;;;4343502;32;20086;-70
2021/06/09 10:22:33;;;;;;;11.25;7.25;;;29.50;31.70;;;;;;4345399;32;20187;-70
2021/06/09 10:25:00;;;;;;;9.10;6.05;;;29.30;31.70;;;;;;4354901;32;20138;-71
2021/06/09 10:27:51;;;;;;;9.18;5.75;;;29.40;31.50;;;;;;4350273;32;20094;-71
2021/06/09 10:30:18;;;;;;;9.05;5.80;;;29.50;32.30;;;;;;4340635;32;20078;-71
2021/06/09 10:33:02;;;;;;;9.75;5.93;;;29.70;33.90;;;;;;4339536;32;20078;-68
2021/06/09 10:35:34;;;;;;;7.43;5.72;;;29.70;33.00;;;;;;4341742;32;20097;-66
2021/06/09 10:38:01;;;;;;;8.43;5.85;;;30.40;33.60;;;;;;4339892;32;20075;-67
2021/06/09 10:40:29;;;;;;;9.15;5.87;;;30.10;31.40;;;;;;4314755;32;20566;-72
2021/06/09 10:43:00;;;;;;;10.05;6.00;;;30.00;32.90;;;;;;4337165;32;20188;-72
2021/06/09 10:45:26;;;;;;;10.15;6.22;;;30.00;30.60;;;;;;4331361;32;20130;-69
2021/06/09 10:47:56;;;;;;;7.93;4.93;;;29.30;31.80;;;;;;4343710;32;20595;-70
2021/06/09 10:50:22;;;;;;;9.25;5.93;;;29.20;34.40;;;;;;4322466;32;20075;-70
2021/06/09 10:52:49;;;;;;;9.43;5.22;;;29.70;33.10;;;;;;4360286;32;20105;-70
2021/06/09 10:55:15;;;;;;;8.30;4.80;;;29.70;32.20;;;;;;4332339;33;20079;-72
2021/06/09 10:57:41;;;;;;;7.80;4.80;;;29.90;31.80;;;;;;4316310;32;20078;-67
2021/06/09 11:00:12;;;;;;;8.05;4.87;;;29.20;31.60;;;;;;4333671;32;20107;-70
2021/06/09 11:02:39;;;;;;;8.48;4.22;;;28.40;33.20;;;;;;4321112;32;20490;-66
2021/06/09 11:05:08;;;;;;;5.87;3.80;;;28.80;33.90;;;;;;4307862;32;20096;-65
2021/06/09 11:07:42;;;;;;;5.47;4.40;;;30.00;32.00;;;;;;4329472;32;20175;-63
2021/06/09 11:10:40;;;;;;;6.15;4.45;;;28.80;32.50;;;;;;4321483;32;20082;-65
2021/06/09 11:13:09;;;;;;;7.05;4.12;;;28.70;32.50;;;;;;4331552;32;20216;-68
2021/06/09 11:15:35;;;;;;;7.57;4.32;;;29.30;33.10;;;;;;4341557;32;20155;-70
2021/06/09 11:18:15;;;;;;;5.90;4.47;;;29.20;31.80;;;;;;4342571;32;20188;-68
2021/06/09 11:20:45;;;;;;;5.72;3.87;;;29.50;32.30;;;;;;4322484;32;20090;-70
2021/06/09 11:23:33;;;;;;;6.80;4.25;;;29.70;31.60;;;;;;4336552;32;20146;-69
2021/06/09 11:26:04;;;;;;;6.68;4.12;;;29.00;33.00;;;;;;4361433;32;20101;-71
2021/06/09 11:28:34;;;;;;;9.32;4.20;;;28.30;33.10;;;;;;4349407;32;20144;-66
2021/06/09 11:31:05;;;;;;;8.10;4.00;;;27.90;33.40;;;;;;4370257;32;20106;-65
2021/06/09 11:33:51;;;;;;;6.45;4.18;;;28.20;32.50;;;;;;4371440;32;20493;-65
2021/06/09 11:36:20;;;;;;;7.75;4.00;;;28.20;34.30;;;;;;4385893;32;20146;-66
2021/06/09 11:38:55;;;;;;;6.25;4.47;;;28.50;32.90;;;;;;4365624;32;20097;-73
2021/06/09 11:41:41;;;;;;;6.10;4.32;;;28.20;33.70;;;;;;4359578;32;20090;-67
2021/06/09 11:44:30;;;;;;;5.90;4.10;;;28.40;33.90;;;;;;4375498;32;20108;-66
2021/06/09 11:47:26;;;;;;;8.32;4.22;;;28.00;33.30;;;;;;4367654;32;20085;-66
2021/06/09 11:49:54;;;;;;;9.32;4.57;;;27.90;34.80;;;;;;4370646;32;20078;-64
2021/06/09 11:52:21;;;;;;;11.32;5.20;;;28.10;34.70;;;;;;4345613;32;20092;-66
2021/06/09 11:54:47;;;;;;;6.90;4.50;;;28.20;35.00;;;;;;4350977;32;20117;-67
2021/06/09 11:57:21;;;;;;;9.70;4.70;;;28.10;33.40;;;;;;4365342;32;20608;-66
2021/06/09 11:59:49;;;;;;;7.30;5.00;;;28.20;35.30;;;;;;4371924;32;20077;-65
2021/06/09 12:02:26;;;;;;;8.77;5.78;;;27.90;34.50;;;;;;4363129;32;20102;-65
2021/06/09 12:04:53;;;;;;;7.45;5.10;;;27.80;36.10;;;;;;4360985;32;20531;-66
2021/06/09 12:07:25;;;;;;;7.50;5.00;;;28.10;34.70;;;;;;4344752;32;20519;-66
2021/06/09 12:09:55;;;;;;;6.12;3.35;;;28.20;36.00;;;;;;4354199;32;20062;-67
2021/06/09 12:12:24;;;;;;;5.45;3.15;;;28.10;35.90;;;;;;4336351;32;20121;-66
2021/06/09 12:14:58;;;;;;;6.65;2.90;;;27.80;36.20;;;;;;4360967;32;20190;-67
2021/06/09 12:17:29;;;;;;;4.82;3.42;;;27.80;36.40;;;;;;4337680;32;20112;-65
2021/06/09 12:20:12;;;;;;;7.30;4.60;;;28.10;35.90;;;;;;4333808;32;20077;-67
2021/06/09 12:22:45;;;;;;;7.18;5.05;;;28.00;35.70;;;;;;4362186;32;20113;-67
2021/06/09 12:25:26;;;;;;;7.37;4.37;;;27.80;35.20;;;;;;4350522;32;20146;-66
2021/06/09 12:28:11;;;;;;;6.87;5.00;;;28.00;35.90;;;;;;4372812;32;20534;-67
2021/06/09 12:30:41;;;;;;;5.45;4.00;;;28.00;34.00;;;;;;4334759;32;20108;-71
2021/06/09 12:33:08;;;;;;;4.03;3.37;;;28.60;34.40;;;;;;4360898;32;20076;-64
2021/06/09 12:35:34;;;;;;;5.97;3.72;;;28.90;33.00;;;;;;4359753;32;20159;-67
2021/06/09 12:38:04;;;;;;;4.80;3.40;;;28.90;32.30;;;;;;4365310;32;20094;-68
2021/06/09 12:40:35;;;;;;;4.10;3.22;;;28.50;32.90;;;;;;4358367;32;20077;-66
2021/06/09 12:43:04;;;;;;;5.50;3.33;;;28.50;32.70;;;;;;4368498;32;20078;-66
2021/06/09 12:45:34;;;;;;;4.95;2.83;;;28.20;33.80;;;;;;4369732;32;20078;-68
2021/06/09 12:48:17;;;;;;;3.87;2.53;;;28.70;33.90;;;;;;4353442;32;20066;-68
2021/06/09 12:51:04;;;;;;;4.78;2.83;;;28.40;32.70;;;;;;4355062;32;20753;-69
2021/06/09 12:53:33;;;;;;;7.22;3.70;;;28.10;33.70;;;;;;4358551;32;20054;-67
2021/06/09 12:56:07;;;;;;;5.65;3.22;;;27.80;33.30;;;;;;4351156;32;20505;-67
2021/06/09 12:58:35;;;;;;;5.97;3.30;;;27.60;34.10;;;;;;4353526;32;20621;-69
2021/06/09 13:01:06;;;;;;;4.75;3.15;;;27.50;33.90;;;;;;4354072;32;20105;-70
2021/06/09 13:03:46;;;;;;;8.93;3.25;;;27.50;34.50;;;;;;4346122;32;20184;-67